sensor_id;sensor_type;location;lat;lon;timestamp;pressure;altitude;pressure_sealevel;temperature;humidity
80759;BME280;70150;45.582;10.178;2023-07-31T00:00:24;99627.69;;;25.26;69.83
80759;BME280;70150;45.582;10.178;2023-07-31T00:02:50;99631.94;;;25.27;70.43
80759;BME280;70150;45.582;10.178;2023-07-31T00:05:16;99638.06;;;25.40;69.91
80759;BME280;70150;45.582;10.178;2023-07-31T00:07:42;99641.91;;;25.34;70.21
80759;BME280;70150;45.582;10.178;2023-07-31T00:10:08;99634.59;;;25.40;70.02
80759;BME280;70150;45.582;10.178;2023-07-31T00:12:33;99638.38;;;25.42;69.89
80759;BME280;70150;45.582;10.178;2023-07-31T00:14:59;99643.28;;;25.47;69.99
80759;BME280;70150;45.582;10.178;2023-07-31T00:17:24;99647.88;;;25.50;69.22
80759;BME280;70150;45.582;10.178;2023-07-31T00:19:50;99644.94;;;25.36;68.45
80759;BME280;70150;45.582;10.178;2023-07-31T00:22:16;99647.50;;;25.30;68.70
80759;BME280;70150;45.582;10.178;2023-07-31T00:24:41;99644.16;;;25.08;68.86
80759;BME280;70150;45.582;10.178;2023-07-31T00:27:07;99638.78;;;24.96;69.20
80759;BME280;70150;45.582;10.178;2023-07-31T00:29:32;99645.19;;;24.93;69.48
80759;BME280;70150;45.582;10.178;2023-07-31T00:31:58;99649.91;;;24.92;69.46
80759;BME280;70150;45.582;10.178;2023-07-31T00:34:23;99651.75;;;24.95;69.30
80759;BME280;70150;45.582;10.178;2023-07-31T00:36:49;99645.34;;;24.98;69.08
80759;BME280;70150;45.582;10.178;2023-07-31T00:39:14;99647.72;;;24.78;69.70
80759;BME280;70150;45.582;10.178;2023-07-31T00:41:42;99652.22;;;24.63;69.89
80759;BME280;70150;45.582;10.178;2023-07-31T00:44:08;99652.13;;;24.66;70.28
80759;BME280;70150;45.582;10.178;2023-07-31T00:46:33;99667.84;;;24.75;70.00
80759;BME280;70150;45.582;10.178;2023-07-31T00:48:59;99655.75;;;24.63;70.20
80759;BME280;70150;45.582;10.178;2023-07-31T00:51:25;99654.03;;;24.57;70.67
80759;BME280;70150;45.582;10.178;2023-07-31T00:53:50;99657.38;;;24.52;70.85
80759;BME280;70150;45.582;10.178;2023-07-31T00:56:19;99654.69;;;24.61;70.09
80759;BME280;70150;45.582;10.178;2023-07-31T00:58:47;99656.19;;;24.62;70.34
80759;BME280;70150;45.582;10.178;2023-07-31T01:01:12;99667.56;;;24.73;70.10
80759;BME280;70150;45.582;10.178;2023-07-31T01:03:38;99667.81;;;24.66;70.08
80759;BME280;70150;45.582;10.178;2023-07-31T01:08:42;99654.94;;;24.54;70.86
80759;BME280;70150;45.582;10.178;2023-07-31T01:11:16;99666.53;;;24.49;70.85
80759;BME280;70150;45.582;10.178;2023-07-31T01:13:43;99659.19;;;24.46;71.08
80759;BME280;70150;45.582;10.178;2023-07-31T01:16:09;99659.03;;;24.49;70.61
80759;BME280;70150;45.582;10.178;2023-07-31T01:18:35;99649.09;;;24.34;71.05
80759;BME280;70150;45.582;10.178;2023-07-31T01:21:12;99641.84;;;24.49;70.76
80759;BME280;70150;45.582;10.178;2023-07-31T01:26:18;99633.91;;;24.51;70.36
80759;BME280;70150;45.582;10.178;2023-07-31T01:31:24;99631.47;;;24.53;70.60
80759;BME280;70150;45.582;10.178;2023-07-31T01:33:52;99626.44;;;24.51;70.93
80759;BME280;70150;45.582;10.178;2023-07-31T01:36:19;99618.34;;;24.48;70.88
80759;BME280;70150;45.582;10.178;2023-07-31T01:38:45;99626.13;;;24.49;70.87
80759;BME280;70150;45.582;10.178;2023-07-31T01:41:10;99618.38;;;24.57;71.08
80759;BME280;70150;45.582;10.178;2023-07-31T01:43:36;99629.34;;;24.57;70.67
80759;BME280;70150;45.582;10.178;2023-07-31T01:46:02;99618.06;;;24.55;70.89
80759;BME280;70150;45.582;10.178;2023-07-31T01:48:27;99622.78;;;24.54;71.06
80759;BME280;70150;45.582;10.178;2023-07-31T01:50:53;99631.16;;;24.51;70.96
80759;BME280;70150;45.582;10.178;2023-07-31T01:53:18;99618.81;;;24.55;71.10
80759;BME280;70150;45.582;10.178;2023-07-31T01:55:44;99621.13;;;24.57;70.74
80759;BME280;70150;45.582;10.178;2023-07-31T01:58:09;99624.44;;;24.43;71.25
80759;BME280;70150;45.582;10.178;2023-07-31T02:00:35;99625.03;;;24.38;71.63
80759;BME280;70150;45.582;10.178;2023-07-31T02:03:00;99614.63;;;24.33;71.96
80759;BME280;70150;45.582;10.178;2023-07-31T02:05:26;99617.06;;;24.31;71.97
80759;BME280;70150;45.582;10.178;2023-07-31T02:07:52;99615.72;;;24.35;71.78
80759;BME280;70150;45.582;10.178;2023-07-31T02:10:17;99618.28;;;24.30;71.81
80759;BME280;70150;45.582;10.178;2023-07-31T02:12:43;99615.25;;;24.28;71.99
80759;BME280;70150;45.582;10.178;2023-07-31T02:15:09;99611.41;;;24.25;71.91
80759;BME280;70150;45.582;10.178;2023-07-31T02:17:34;99616.69;;;24.11;72.66
80759;BME280;70150;45.582;10.178;2023-07-31T02:20:00;99605.56;;;24.14;72.26
80759;BME280;70150;45.582;10.178;2023-07-31T02:22:28;99601.25;;;24.04;72.96
80759;BME280;70150;45.582;10.178;2023-07-31T02:24:53;99600.81;;;24.06;73.06
80759;BME280;70150;45.582;10.178;2023-07-31T02:27:19;99606.19;;;24.18;73.02
80759;BME280;70150;45.582;10.178;2023-07-31T02:29:44;99608.97;;;24.27;72.54
80759;BME280;70150;45.582;10.178;2023-07-31T02:32:10;99602.91;;;24.32;72.34
80759;BME280;70150;45.582;10.178;2023-07-31T02:34:35;99619.22;;;24.36;72.19
80759;BME280;70150;45.582;10.178;2023-07-31T02:37:01;99608.84;;;24.31;72.11
80759;BME280;70150;45.582;10.178;2023-07-31T02:39:26;99609.75;;;24.28;72.39
80759;BME280;70150;45.582;10.178;2023-07-31T02:41:52;99611.94;;;24.11;72.84
80759;BME280;70150;45.582;10.178;2023-07-31T02:44:17;99610.13;;;24.17;72.76
80759;BME280;70150;45.582;10.178;2023-07-31T02:46:43;99617.28;;;24.15;73.03
80759;BME280;70150;45.582;10.178;2023-07-31T02:49:09;99610.28;;;24.14;72.99
80759;BME280;70150;45.582;10.178;2023-07-31T02:51:34;99618.56;;;24.23;72.89
80759;BME280;70150;45.582;10.178;2023-07-31T02:54:00;99610.78;;;24.21;72.86
80759;BME280;70150;45.582;10.178;2023-07-31T02:56:28;99613.84;;;24.23;72.98
80759;BME280;70150;45.582;10.178;2023-07-31T02:58:53;99611.19;;;24.11;73.33
80759;BME280;70150;45.582;10.178;2023-07-31T03:01:19;99611.34;;;24.16;72.97
80759;BME280;70150;45.582;10.178;2023-07-31T03:03:44;99608.50;;;24.20;72.95
80759;BME280;70150;45.582;10.178;2023-07-31T03:06:10;99609.88;;;24.24;73.16
80759;BME280;70150;45.582;10.178;2023-07-31T03:08:35;99612.50;;;24.28;72.60
80759;BME280;70150;45.582;10.178;2023-07-31T03:11:01;99622.84;;;24.33;72.55
80759;BME280;70150;45.582;10.178;2023-07-31T03:13:26;99614.31;;;24.22;72.96
80759;BME280;70150;45.582;10.178;2023-07-31T03:15:52;99621.78;;;24.00;73.20
80759;BME280;70150;45.582;10.178;2023-07-31T03:18:17;99619.72;;;24.13;72.78
80759;BME280;70150;45.582;10.178;2023-07-31T03:20:46;99617.28;;;24.15;72.94
80759;BME280;70150;45.582;10.178;2023-07-31T03:23:11;99614.88;;;24.17;72.38
80759;BME280;70150;45.582;10.178;2023-07-31T03:25:37;99621.00;;;23.99;73.14
80759;BME280;70150;45.582;10.178;2023-07-31T03:28:02;99617.44;;;23.90;73.59
80759;BME280;70150;45.582;10.178;2023-07-31T03:30:28;99609.97;;;23.90;73.71
80759;BME280;70150;45.582;10.178;2023-07-31T03:32:53;99607.06;;;23.85;73.71
80759;BME280;70150;45.582;10.178;2023-07-31T03:35:19;99603.28;;;23.91;73.27
80759;BME280;70150;45.582;10.178;2023-07-31T03:37:45;99599.97;;;23.96;72.96
80759;BME280;70150;45.582;10.178;2023-07-31T03:40:11;99606.56;;;23.77;73.41
80759;BME280;70150;45.582;10.178;2023-07-31T03:42:36;99605.59;;;23.93;73.32
80759;BME280;70150;45.582;10.178;2023-07-31T03:45:02;99604.91;;;24.01;72.89
80759;BME280;70150;45.582;10.178;2023-07-31T03:47:28;99609.53;;;23.92;73.07
80759;BME280;70150;45.582;10.178;2023-07-31T03:49:54;99612.41;;;23.88;73.43
80759;BME280;70150;45.582;10.178;2023-07-31T03:52:20;99603.53;;;23.84;73.29
80759;BME280;70150;45.582;10.178;2023-07-31T03:54:45;99609.03;;;23.84;73.33
80759;BME280;70150;45.582;10.178;2023-07-31T03:57:11;99608.72;;;23.82;73.58
80759;BME280;70150;45.582;10.178;2023-07-31T03:59:36;99606.94;;;23.88;72.95
80759;BME280;70150;45.582;10.178;2023-07-31T04:02:04;99616.19;;;23.82;73.42
80759;BME280;70150;45.582;10.178;2023-07-31T04:04:29;99614.28;;;23.70;73.82
80759;BME280;70150;45.582;10.178;2023-07-31T04:06:55;99620.13;;;23.81;73.44
80759;BME280;70150;45.582;10.178;2023-07-31T04:09:21;99621.78;;;23.78;73.55
80759;BME280;70150;45.582;10.178;2023-07-31T04:11:46;99623.00;;;23.77;73.61
80759;BME280;70150;45.582;10.178;2023-07-31T04:14:12;99629.19;;;23.69;73.81
80759;BME280;70150;45.582;10.178;2023-07-31T04:16:37;99632.69;;;23.69;73.57
80759;BME280;70150;45.582;10.178;2023-07-31T04:19:03;99634.91;;;23.62;74.00
80759;BME280;70150;45.582;10.178;2023-07-31T04:21:29;99631.22;;;23.56;74.05
80759;BME280;70150;45.582;10.178;2023-07-31T04:23:54;99633.50;;;23.57;73.98
80759;BME280;70150;45.582;10.178;2023-07-31T04:26:21;99635.41;;;23.69;73.79
80759;BME280;70150;45.582;10.178;2023-07-31T04:28:47;99633.56;;;23.66;73.36
80759;BME280;70150;45.582;10.178;2023-07-31T04:31:12;99631.34;;;23.74;73.24
80759;BME280;70150;45.582;10.178;2023-07-31T04:33:38;99630.88;;;23.75;73.27
80759;BME280;70150;45.582;10.178;2023-07-31T04:36:04;99629.31;;;23.87;73.19
80759;BME280;70150;45.582;10.178;2023-07-31T04:38:30;99628.53;;;23.86;73.03
80759;BME280;70150;45.582;10.178;2023-07-31T04:40:56;99632.13;;;23.96;72.61
80759;BME280;70150;45.582;10.178;2023-07-31T04:43:21;99621.25;;;24.14;72.09
80759;BME280;70150;45.582;10.178;2023-07-31T04:45:47;99629.25;;;24.30;71.91
80759;BME280;70150;45.582;10.178;2023-07-31T04:48:13;99631.38;;;24.26;71.56
80759;BME280;70150;45.582;10.178;2023-07-31T04:50:38;99636.28;;;24.31;71.70
80759;BME280;70150;45.582;10.178;2023-07-31T04:53:04;99632.97;;;24.14;71.81
80759;BME280;70150;45.582;10.178;2023-07-31T04:55:30;99626.81;;;24.32;71.64
80759;BME280;70150;45.582;10.178;2023-07-31T04:57:58;99629.44;;;24.35;71.39
80759;BME280;70150;45.582;10.178;2023-07-31T05:00:24;99627.03;;;24.46;71.20
80759;BME280;70150;45.582;10.178;2023-07-31T05:02:50;99624.88;;;24.41;71.02
80759;BME280;70150;45.582;10.178;2023-07-31T05:05:15;99621.06;;;24.39;71.06
80759;BME280;70150;45.582;10.178;2023-07-31T05:07:41;99625.91;;;24.35;71.36
80759;BME280;70150;45.582;10.178;2023-07-31T05:10:07;99632.94;;;24.36;71.02
80759;BME280;70150;45.582;10.178;2023-07-31T05:12:32;99624.94;;;24.20;71.20
80759;BME280;70150;45.582;10.178;2023-07-31T05:14:58;99630.22;;;24.14;71.61
80759;BME280;70150;45.582;10.178;2023-07-31T05:17:23;99635.50;;;24.30;71.73
80759;BME280;70150;45.582;10.178;2023-07-31T05:19:49;99637.34;;;24.33;71.18
80759;BME280;70150;45.582;10.178;2023-07-31T05:22:15;99643.91;;;24.36;70.53
80759;BME280;70150;45.582;10.178;2023-07-31T05:24:40;99647.88;;;24.35;70.67
80759;BME280;70150;45.582;10.178;2023-07-31T05:27:08;99650.44;;;24.29;70.76
80759;BME280;70150;45.582;10.178;2023-07-31T05:29:35;99649.56;;;24.41;70.67
80759;BME280;70150;45.582;10.178;2023-07-31T05:32:00;99658.91;;;24.53;70.61
80759;BME280;70150;45.582;10.178;2023-07-31T05:34:26;99663.19;;;24.63;69.83
80759;BME280;70150;45.582;10.178;2023-07-31T05:36:51;99668.91;;;24.68;70.18
80759;BME280;70150;45.582;10.178;2023-07-31T05:39:17;99664.34;;;24.74;69.84
80759;BME280;70150;45.582;10.178;2023-07-31T05:41:47;99667.59;;;24.91;68.90
80759;BME280;70150;45.582;10.178;2023-07-31T05:44:12;99683.47;;;24.96;69.10
80759;BME280;70150;45.582;10.178;2023-07-31T05:46:38;99681.81;;;25.08;68.87
80759;BME280;70150;45.582;10.178;2023-07-31T05:49:03;99677.72;;;25.12;68.08
80759;BME280;70150;45.582;10.178;2023-07-31T05:51:29;99677.41;;;25.19;68.00
80759;BME280;70150;45.582;10.178;2023-07-31T05:53:54;99676.06;;;25.33;67.33
80759;BME280;70150;45.582;10.178;2023-07-31T05:56:22;99675.03;;;25.39;67.86
80759;BME280;70150;45.582;10.178;2023-07-31T05:58:48;99689.69;;;25.45;67.21
80759;BME280;70150;45.582;10.178;2023-07-31T06:01:16;99685.41;;;25.44;67.08
80759;BME280;70150;45.582;10.178;2023-07-31T06:03:44;99693.34;;;25.42;67.28
80759;BME280;70150;45.582;10.178;2023-07-31T06:06:10;99689.22;;;25.47;66.67
80759;BME280;70150;45.582;10.178;2023-07-31T06:08:36;99690.91;;;25.53;66.87
80759;BME280;70150;45.582;10.178;2023-07-31T06:11:01;99688.31;;;25.59;66.67
80759;BME280;70150;45.582;10.178;2023-07-31T06:13:29;99682.66;;;25.62;67.99
80759;BME280;70150;45.582;10.178;2023-07-31T06:15:55;99684.50;;;25.65;66.96
80759;BME280;70150;45.582;10.178;2023-07-31T06:18:20;99679.00;;;25.74;66.82
80759;BME280;70150;45.582;10.178;2023-07-31T06:20:46;99678.06;;;25.86;66.51
80759;BME280;70150;45.582;10.178;2023-07-31T06:23:12;99683.09;;;25.88;65.87
80759;BME280;70150;45.582;10.178;2023-07-31T06:25:40;99675.31;;;26.04;65.00
80759;BME280;70150;45.582;10.178;2023-07-31T06:28:06;99683.72;;;25.74;65.47
80759;BME280;70150;45.582;10.178;2023-07-31T06:30:31;99682.03;;;26.12;64.57
80759;BME280;70150;45.582;10.178;2023-07-31T06:32:57;99688.25;;;26.13;64.34
80759;BME280;70150;45.582;10.178;2023-07-31T06:35:22;99687.81;;;26.05;64.79
80759;BME280;70150;45.582;10.178;2023-07-31T06:37:48;99687.22;;;26.10;64.71
80759;BME280;70150;45.582;10.178;2023-07-31T06:40:14;99690.72;;;26.20;64.71
80759;BME280;70150;45.582;10.178;2023-07-31T06:42:39;99694.28;;;26.86;62.27
80759;BME280;70150;45.582;10.178;2023-07-31T06:45:05;99693.63;;;27.00;62.06
80759;BME280;70150;45.582;10.178;2023-07-31T06:47:31;99691.41;;;26.48;64.09
80759;BME280;70150;45.582;10.178;2023-07-31T06:49:57;99700.91;;;26.28;64.60
80759;BME280;70150;45.582;10.178;2023-07-31T06:52:22;99707.47;;;26.31;64.36
80759;BME280;70150;45.582;10.178;2023-07-31T06:55:01;99708.66;;;26.48;64.16
80759;BME280;70150;45.582;10.178;2023-07-31T06:57:28;99712.47;;;26.51;63.84
80759;BME280;70150;45.582;10.178;2023-07-31T06:59:53;99708.16;;;26.59;63.92
80759;BME280;70150;45.582;10.178;2023-07-31T07:02:19;99717.66;;;26.58;64.12
80759;BME280;70150;45.582;10.178;2023-07-31T07:04:44;99715.81;;;26.55;63.97
80759;BME280;70150;45.582;10.178;2023-07-31T07:07:10;99721.31;;;26.64;64.40
80759;BME280;70150;45.582;10.178;2023-07-31T07:09:35;99711.09;;;26.64;64.61
80759;BME280;70150;45.582;10.178;2023-07-31T07:12:01;99711.16;;;26.79;63.85
80759;BME280;70150;45.582;10.178;2023-07-31T07:14:26;99713.28;;;26.84;64.09
80759;BME280;70150;45.582;10.178;2023-07-31T07:16:52;99706.25;;;26.83;64.15
80759;BME280;70150;45.582;10.178;2023-07-31T07:19:17;99708.47;;;26.93;63.26
80759;BME280;70150;45.582;10.178;2023-07-31T07:21:43;99705.72;;;26.93;63.00
80759;BME280;70150;45.582;10.178;2023-07-31T07:24:09;99703.59;;;26.97;63.33
80759;BME280;70150;45.582;10.178;2023-07-31T07:26:34;99709.25;;;26.94;63.71
80759;BME280;70150;45.582;10.178;2023-07-31T07:29:02;99712.63;;;26.89;62.84
80759;BME280;70150;45.582;10.178;2023-07-31T07:31:28;99713.72;;;26.91;64.10
80759;BME280;70150;45.582;10.178;2023-07-31T07:33:54;99712.94;;;26.91;63.51
80759;BME280;70150;45.582;10.178;2023-07-31T07:36:19;99706.75;;;27.05;63.26
80759;BME280;70150;45.582;10.178;2023-07-31T07:38:45;99704.25;;;27.39;62.54
80759;BME280;70150;45.582;10.178;2023-07-31T07:41:10;99697.88;;;27.71;61.15
80759;BME280;70150;45.582;10.178;2023-07-31T07:43:36;99700.22;;;27.87;60.30
80759;BME280;70150;45.582;10.178;2023-07-31T07:46:01;99697.09;;;28.24;58.98
80759;BME280;70150;45.582;10.178;2023-07-31T07:48:27;99697.19;;;28.00;58.78
80759;BME280;70150;45.582;10.178;2023-07-31T07:50:53;99696.69;;;27.87;59.84
80759;BME280;70150;45.582;10.178;2023-07-31T07:53:18;99701.75;;;28.32;59.12
80759;BME280;70150;45.582;10.178;2023-07-31T07:55:44;99703.19;;;29.06;58.36
80759;BME280;70150;45.582;10.178;2023-07-31T07:58:09;99705.94;;;29.06;57.35
80759;BME280;70150;45.582;10.178;2023-07-31T08:00:35;99709.75;;;28.94;58.19
80759;BME280;70150;45.582;10.178;2023-07-31T08:03:00;99721.91;;;28.82;58.19
80759;BME280;70150;45.582;10.178;2023-07-31T08:05:26;99714.53;;;28.93;57.21
80759;BME280;70150;45.582;10.178;2023-07-31T08:07:51;99712.09;;;29.15;55.51
80759;BME280;70150;45.582;10.178;2023-07-31T08:10:20;99713.19;;;29.03;56.39
80759;BME280;70150;45.582;10.178;2023-07-31T08:12:45;99713.06;;;29.12;55.16
80759;BME280;70150;45.582;10.178;2023-07-31T08:15:11;99708.78;;;29.51;57.18
80759;BME280;70150;45.582;10.178;2023-07-31T08:17:36;99704.91;;;29.43;54.43
80759;BME280;70150;45.582;10.178;2023-07-31T08:20:02;99704.91;;;29.43;54.87
80759;BME280;70150;45.582;10.178;2023-07-31T08:22:27;99701.53;;;29.34;56.26
80759;BME280;70150;45.582;10.178;2023-07-31T08:24:53;99695.75;;;29.32;55.08
80759;BME280;70150;45.582;10.178;2023-07-31T08:27:18;99696.28;;;29.36;55.31
80759;BME280;70150;45.582;10.178;2023-07-31T08:29:44;99699.38;;;29.84;55.61
80759;BME280;70150;45.582;10.178;2023-07-31T08:32:10;99693.28;;;29.79;55.58
80759;BME280;70150;45.582;10.178;2023-07-31T08:34:35;99699.16;;;30.13;54.65
80759;BME280;70150;45.582;10.178;2023-07-31T08:37:01;99698.69;;;30.14;53.32
80759;BME280;70150;45.582;10.178;2023-07-31T08:39:26;99694.38;;;30.39;54.63
80759;BME280;70150;45.582;10.178;2023-07-31T08:41:58;99690.97;;;30.55;52.45
80759;BME280;70150;45.582;10.178;2023-07-31T08:44:24;99691.34;;;30.73;53.72
80759;BME280;70150;45.582;10.178;2023-07-31T08:46:50;99688.53;;;30.68;50.20
80759;BME280;70150;45.582;10.178;2023-07-31T08:49:17;99684.28;;;30.72;49.50
80759;BME280;70150;45.582;10.178;2023-07-31T08:51:46;99681.69;;;30.27;46.50
80759;BME280;70150;45.582;10.178;2023-07-31T08:54:15;99685.38;;;30.49;45.69
80759;BME280;70150;45.582;10.178;2023-07-31T08:56:42;99685.91;;;30.84;45.37
80759;BME280;70150;45.582;10.178;2023-07-31T08:59:08;99679.97;;;31.02;47.18
80759;BME280;70150;45.582;10.178;2023-07-31T09:01:39;99673.75;;;30.76;47.70
80759;BME280;70150;45.582;10.178;2023-07-31T09:04:09;99677.56;;;30.48;47.98
80759;BME280;70150;45.582;10.178;2023-07-31T09:06:36;99671.91;;;30.31;48.51
80759;BME280;70150;45.582;10.178;2023-07-31T09:09:02;99669.69;;;30.10;48.36
80759;BME280;70150;45.582;10.178;2023-07-31T09:11:28;99668.06;;;29.98;48.38
80759;BME280;70150;45.582;10.178;2023-07-31T09:13:57;99680.03;;;30.15;49.01
80759;BME280;70150;45.582;10.178;2023-07-31T09:16:27;99672.41;;;30.30;48.34
80759;BME280;70150;45.582;10.178;2023-07-31T09:18:56;99667.97;;;30.43;48.42
80759;BME280;70150;45.582;10.178;2023-07-31T09:21:27;99663.28;;;30.55;47.34
80759;BME280;70150;45.582;10.178;2023-07-31T09:23:53;99658.94;;;30.48;47.58
80759;BME280;70150;45.582;10.178;2023-07-31T09:28:52;99654.69;;;30.53;46.38
80759;BME280;70150;45.582;10.178;2023-07-31T09:33:59;99661.72;;;29.66;49.01
80759;BME280;70150;45.582;10.178;2023-07-31T09:36:29;99663.00;;;29.96;48.71
80759;BME280;70150;45.582;10.178;2023-07-31T09:38:55;99662.81;;;30.00;48.96
80759;BME280;70150;45.582;10.178;2023-07-31T09:41:21;99674.91;;;29.56;48.49
80759;BME280;70150;45.582;10.178;2023-07-31T09:43:53;99658.34;;;29.56;49.49
80759;BME280;70150;45.582;10.178;2023-07-31T09:46:19;99667.53;;;29.48;49.67
80759;BME280;70150;45.582;10.178;2023-07-31T09:48:47;99672.22;;;29.62;50.64
80759;BME280;70150;45.582;10.178;2023-07-31T09:51:13;99674.03;;;29.45;50.13
80759;BME280;70150;45.582;10.178;2023-07-31T09:53:39;99673.28;;;29.24;50.04
80759;BME280;70150;45.582;10.178;2023-07-31T09:56:05;99673.13;;;29.33;50.72
80759;BME280;70150;45.582;10.178;2023-07-31T09:58:34;99668.78;;;29.93;49.90
80759;BME280;70150;45.582;10.178;2023-07-31T10:01:02;99667.91;;;29.81;49.95
80759;BME280;70150;45.582;10.178;2023-07-31T10:03:29;99670.34;;;29.73;48.98
80759;BME280;70150;45.582;10.178;2023-07-31T10:05:57;99673.50;;;29.87;47.94
80759;BME280;70150;45.582;10.178;2023-07-31T10:08:27;99667.53;;;29.94;49.50
80759;BME280;70150;45.582;10.178;2023-07-31T10:10:58;99668.13;;;30.29;51.03
80759;BME280;70150;45.582;10.178;2023-07-31T10:13:27;99663.81;;;30.02;48.81
80759;BME280;70150;45.582;10.178;2023-07-31T10:15:54;99658.78;;;30.01;48.42
80759;BME280;70150;45.582;10.178;2023-07-31T10:18:20;99663.03;;;30.22;49.57
80759;BME280;70150;45.582;10.178;2023-07-31T10:20:47;99655.00;;;29.98;48.66
80759;BME280;70150;45.582;10.178;2023-07-31T10:23:14;99645.28;;;30.08;48.06
80759;BME280;70150;45.582;10.178;2023-07-31T10:25:42;99645.88;;;29.92;46.31
80759;BME280;70150;45.582;10.178;2023-07-31T10:28:08;99647.00;;;30.06;47.83
80759;BME280;70150;45.582;10.178;2023-07-31T10:30:35;99650.53;;;30.32;49.94
80759;BME280;70150;45.582;10.178;2023-07-31T10:33:04;99642.34;;;29.92;48.92
80759;BME280;70150;45.582;10.178;2023-07-31T10:35:33;99644.38;;;29.91;49.53
80759;BME280;70150;45.582;10.178;2023-07-31T10:40:30;99654.31;;;30.09;48.29
80759;BME280;70150;45.582;10.178;2023-07-31T10:42:56;99646.19;;;30.25;48.93
80759;BME280;70150;45.582;10.178;2023-07-31T10:47:59;99648.91;;;30.20;48.22
80759;BME280;70150;45.582;10.178;2023-07-31T10:50:26;99636.09;;;29.97;46.96
80759;BME280;70150;45.582;10.178;2023-07-31T10:52:54;99640.13;;;30.21;47.00
80759;BME280;70150;45.582;10.178;2023-07-31T10:55:24;99643.41;;;30.25;48.70
80759;BME280;70150;45.582;10.178;2023-07-31T10:57:51;99642.50;;;30.34;48.36
80759;BME280;70150;45.582;10.178;2023-07-31T11:05:17;99647.91;;;30.54;49.16
80759;BME280;70150;45.582;10.178;2023-07-31T11:07:48;99649.38;;;30.80;47.94
80759;BME280;70150;45.582;10.178;2023-07-31T11:10:17;99648.19;;;30.56;47.53
80759;BME280;70150;45.582;10.178;2023-07-31T11:12:45;99642.28;;;30.12;47.81
80759;BME280;70150;45.582;10.178;2023-07-31T11:15:10;99647.50;;;30.04;47.90
80759;BME280;70150;45.582;10.178;2023-07-31T11:17:38;99646.03;;;30.09;47.82
80759;BME280;70150;45.582;10.178;2023-07-31T11:20:04;99648.34;;;30.41;48.43
80759;BME280;70150;45.582;10.178;2023-07-31T11:22:30;99642.69;;;30.25;47.20
80759;BME280;70150;45.582;10.178;2023-07-31T11:24:56;99641.22;;;30.35;47.21
80759;BME280;70150;45.582;10.178;2023-07-31T11:27:21;99639.09;;;30.55;47.55
80759;BME280;70150;45.582;10.178;2023-07-31T11:29:47;99634.75;;;30.80;48.50
80759;BME280;70150;45.582;10.178;2023-07-31T11:32:16;99638.16;;;31.11;47.18
80759;BME280;70150;45.582;10.178;2023-07-31T11:37:14;99621.78;;;31.08;44.74
80759;BME280;70150;45.582;10.178;2023-07-31T11:39:40;99619.88;;;31.36;46.77
80759;BME280;70150;45.582;10.178;2023-07-31T11:42:06;99612.72;;;31.13;45.23
80759;BME280;70150;45.582;10.178;2023-07-31T11:47:03;99607.22;;;31.24;44.90
80759;BME280;70150;45.582;10.178;2023-07-31T11:49:29;99604.81;;;30.89;45.00
80759;BME280;70150;45.582;10.178;2023-07-31T11:51:55;99605.34;;;30.93;46.39
80759;BME280;70150;45.582;10.178;2023-07-31T11:54:21;99605.03;;;31.39;47.92
80759;BME280;70150;45.582;10.178;2023-07-31T11:56:46;99602.50;;;31.35;47.06
80759;BME280;70150;45.582;10.178;2023-07-31T11:59:15;99602.75;;;31.43;46.90
80759;BME280;70150;45.582;10.178;2023-07-31T12:01:40;99590.53;;;31.02;45.92
80759;BME280;70150;45.582;10.178;2023-07-31T12:04:06;99593.41;;;31.29;47.16
80759;BME280;70150;45.582;10.178;2023-07-31T12:06:34;99581.34;;;31.60;46.11
80759;BME280;70150;45.582;10.178;2023-07-31T12:09:02;99581.63;;;31.68;45.41
80759;BME280;70150;45.582;10.178;2023-07-31T12:11:29;99576.56;;;31.66;46.34
80759;BME280;70150;45.582;10.178;2023-07-31T12:13:56;99575.56;;;31.69;47.84
80759;BME280;70150;45.582;10.178;2023-07-31T12:16:26;99563.22;;;31.76;46.65
80759;BME280;70150;45.582;10.178;2023-07-31T12:18:52;99568.25;;;31.61;48.78
80759;BME280;70150;45.582;10.178;2023-07-31T12:21:19;99561.72;;;31.75;47.62
80759;BME280;70150;45.582;10.178;2023-07-31T12:23:45;99569.25;;;31.63;46.27
80759;BME280;70150;45.582;10.178;2023-07-31T12:26:12;99555.44;;;31.85;46.29
80759;BME280;70150;45.582;10.178;2023-07-31T12:31:09;99555.09;;;31.33;48.77
80759;BME280;70150;45.582;10.178;2023-07-31T12:33:36;99546.72;;;31.28;47.72
80759;BME280;70150;45.582;10.178;2023-07-31T12:36:07;99544.00;;;31.44;48.08
80759;BME280;70150;45.582;10.178;2023-07-31T12:38:33;99536.47;;;31.56;48.32
80759;BME280;70150;45.582;10.178;2023-07-31T12:40:58;99536.47;;;31.39;46.91
80759;BME280;70150;45.582;10.178;2023-07-31T12:43:24;99525.81;;;31.21;46.32
80759;BME280;70150;45.582;10.178;2023-07-31T12:45:50;99521.75;;;31.11;46.26
80759;BME280;70150;45.582;10.178;2023-07-31T12:48:15;99523.56;;;31.20;48.57
80759;BME280;70150;45.582;10.178;2023-07-31T12:50:41;99521.53;;;31.26;47.34
80759;BME280;70150;45.582;10.178;2023-07-31T12:53:09;99508.22;;;31.58;47.25
80759;BME280;70150;45.582;10.178;2023-07-31T12:55:35;99508.50;;;31.65;46.12
80759;BME280;70150;45.582;10.178;2023-07-31T12:58:02;99504.94;;;31.65;47.40
80759;BME280;70150;45.582;10.178;2023-07-31T13:00:28;99504.19;;;31.42;47.02
80759;BME280;70150;45.582;10.178;2023-07-31T13:02:54;99493.84;;;31.42;46.72
80759;BME280;70150;45.582;10.178;2023-07-31T13:05:20;99492.34;;;31.64;47.18
80759;BME280;70150;45.582;10.178;2023-07-31T13:07:46;99485.28;;;31.52;45.48
80759;BME280;70150;45.582;10.178;2023-07-31T13:10:11;99486.81;;;31.58;44.62
80759;BME280;70150;45.582;10.178;2023-07-31T13:12:37;99478.72;;;31.60;47.24
80759;BME280;70150;45.582;10.178;2023-07-31T13:15:05;99470.38;;;31.93;47.85